• Join FlightAware (Why Join?)
  • Login
  • US Flag 
12:52PM EDT


 

Airport Tracker/Info


-or-


 

Live Flight TrackerFlight Track Log ✈ EJM685 ✈ 30-Dec-2012 ✈ KASE - KTEB

Flight Track Log - Related Links

Times and Time Zones

All times are in EST time to prevent confusion due to time zone crossing. See the EJM685 flight status page for this flight to view local times or setup timezone preferences in your user account.

Time Position Orientation Groundspeed Altitude Reporting Facility
EST Latitude Longitude Course Direction KTS MPH feet Rate Location/Type
04:12PM 39.2919 -106.9567 1000° North 280 322 12,300  Level Denver Center
04:13PM 39.3194 -107.0675 76° East 315 362 16,700 3,360 Climbing Denver Center
04:14PM 39.4322 -107.0997 77° East 381 438 19,300 2,460 Climbing Denver Center
04:16PM 39.5386 -107.0250 77° East 442 509 21,800 2,520 Climbing Denver Center
04:17PM 39.6280 -106.7150 1000° North 26,800 2,580 Climbing FlightAware ADS-B
04:18PM 39.6440 -106.6250 77° East 514 592 28,000 2,280 Climbing FlightAware ADS-B
04:18PM 39.6615 -106.5340 76° East 512 589 29,100 2,460 Climbing FlightAware ADS-B
04:19PM 39.6776 -106.4460 77° East 464 534 30,500 2,640 Climbing FlightAware ADS-B
04:19PM 39.6944 -106.3540 77° East 524 603 31,800 2,160 Climbing FlightAware ADS-B
04:20PM 39.7112 -106.2620 77° East 525 604 32,700 2,100 Climbing FlightAware ADS-B
04:20PM 39.7305 -106.1570 77° East 530 610 34,100 2,040 Climbing FlightAware ADS-B
04:21PM 39.7478 -106.0590 77° East 501 577 35,000 1,800 Climbing FlightAware ADS-B
04:22PM 39.7650 -105.9640 77° East 542 624 36,000 1,920 Climbing FlightAware ADS-B
04:22PM 39.7827 -105.8680 76° East 542 624 37,000 1,740 Climbing FlightAware ADS-B
04:23PM 39.8002 -105.7700 77° East 560 644 37,800 1,620 Climbing FlightAware ADS-B
04:23PM 39.8185 -105.6680 77° East 564 649 38,700 1,740 Climbing FlightAware ADS-B
04:24PM 39.8356 -105.5730 77° East 558 642 39,600 1,860 Climbing FlightAware ADS-B
04:24PM 39.8529 -105.4750 77° East 551 634 40,600 1,920 Climbing FlightAware ADS-B
04:25PM 39.8701 -105.3780 77° East 535 616 41,600 1,980 Climbing FlightAware ADS-B
04:25PM 39.8882 -105.2730 77° East 537 618 42,700 1,980 Climbing FlightAware ADS-B
04:26PM 39.9040 -105.1820 77° East 522 601 43,700 1,860 Climbing FlightAware ADS-B
04:26PM 39.9198 -105.0910 77° East 506 582 44,600 1,260 Climbing FlightAware ADS-B
04:27PM 39.9354 -105.0000 77° East 496 571 45,000 360 Climbing FlightAware ADS-B
04:27PM 39.9512 -104.9080 77° East 521 600 45,000  Level FlightAware ADS-B
04:28PM 39.9677 -104.8100 78° East 549 632 45,000  Level FlightAware ADS-B
04:28PM 39.9844 -104.7120 77° East 529 609 45,000  Level FlightAware ADS-B
04:29PM 40.0017 -104.6090 78° East 536 617 45,000  Level FlightAware ADS-B
04:29PM 40.0180 -104.5110 78° East 549 632 45,000  Level FlightAware ADS-B
04:30PM 40.0337 -104.4170 78° East 509 586 45,000  Level FlightAware ADS-B
04:30PM 40.0505 -104.3150 78° East 548 631 45,000  Level FlightAware ADS-B
04:31PM 40.0676 -104.2110 78° East 537 618 45,000  Level FlightAware ADS-B
04:31PM 40.0843 -104.1090 78° East 549 632 45,000  Level FlightAware ADS-B
04:32PM 40.1001 -104.0120 78° East 540 621 45,000  Level FlightAware ADS-B
04:32PM 40.1164 -103.9100 78° East 553 636 45,000  Level FlightAware ADS-B
04:33PM 40.1317 -103.8150 78° East 507 583 45,000  Level FlightAware ADS-B
04:33PM 40.1480 -103.7130 78° East 553 636 45,000  Level FlightAware ADS-B
04:34PM 40.1636 -103.6150 78° East 542 624 45,000  Level FlightAware ADS-B
04:34PM 40.1792 -103.5160 78° East 549 632 45,000  Level FlightAware ADS-B
04:35PM 40.1941 -103.4200 78° East 525 604 45,000  Level FlightAware ADS-B
04:35PM 40.2094 -103.3210 79° East 557 641 45,000  Level FlightAware ADS-B
04:36PM 40.2252 -103.2200 78° East 547 629 45,000  Level FlightAware ADS-B
04:36PM 40.2403 -103.1210 79° East 547 629 45,000  Level FlightAware ADS-B
04:37PM 40.2554 -103.0230 79° East 529 609 45,000  Level FlightAware ADS-B
04:37PM 40.2697 -102.9280 79° East 509 586 45,000  Level FlightAware ADS-B
04:38PM 40.2846 -102.8290 79° East 561 646 45,000  Level FlightAware ADS-B
04:38PM 40.2994 -102.7310 79° East 550 633 45,000  Level FlightAware ADS-B
04:39PM 40.3141 -102.6320 79° East 550 633 45,000  Level FlightAware ADS-B
04:39PM 40.3289 -102.5320 79° East 545 627 45,000  Level FlightAware ADS-B
04:40PM 40.3442 -102.4280 79° East 560 644 45,000  Level FlightAware ADS-B
04:40PM 40.3588 -102.3290 79° East 545 627 45,000  Level FlightAware ADS-B
04:41PM 40.3732 -102.2290 79° East 543 625 45,000  Level FlightAware ADS-B
04:42PM 40.3883 -102.1240 79° East 548 631 45,000  Level FlightAware ADS-B
04:42PM 40.4020 -102.0290 79° East 503 579 45,000  Level FlightAware ADS-B
04:43PM 40.4165 -101.9260 79° East 548 631 45,000  Level FlightAware ADS-B
04:43PM 40.4305 -101.8270 79° East 564 649 45,000  Level FlightAware ADS-B
04:44PM 40.4446 -101.7280 79° East 549 632 45,000  Level FlightAware ADS-B
04:44PM 40.4585 -101.6280 80° East 563 648 45,000  Level FlightAware ADS-B
04:45PM 40.4723 -101.5290 80° East 543 625 45,000  Level FlightAware ADS-B
04:45PM 40.4860 -101.4290 80° East 553 636 45,000  Level FlightAware ADS-B
04:46PM 40.4999 -101.3270 80° East 548 631 45,000  Level FlightAware ADS-B
04:46PM 40.5134 -101.2280 80° East 547 629 45,000  Level FlightAware ADS-B
04:47PM 40.5273 -101.1250 80° East 546 628 45,000  Level FlightAware ADS-B
04:47PM 40.5402 -101.0290 80° East 502 578 45,000  Level FlightAware ADS-B
04:48PM 40.5534 -100.9300 80° East 537 618 45,000  Level FlightAware ADS-B
04:48PM 40.5665 -100.8310 80° East 542 624 45,000  Level FlightAware ADS-B
04:49PM 40.5794 -100.7320 80° East 550 633 45,000  Level FlightAware ADS-B
04:49PM 40.5922 -100.6340 80° East 545 627 45,000  Level FlightAware ADS-B
04:50PM 40.6119 -100.5706 80° East 539 620 45,000  Level Denver Center
04:51PM 40.6436 -100.3242 80° East 541 623 45,000  Level Denver Center
04:52PM 40.6672 -100.1364 81° East 544 626 45,000  Level Denver Center
04:53PM 40.6950 -99.9156 81° East 548 631 45,000  Level Denver Center
04:54PM 40.7222 -99.7019 80° East 547 629 45,000  Level Denver Center
04:55PM 40.7458 -99.5031 81° East 549 632 45,000  Level Denver Center
04:56PM 40.7697 -99.3047 81° East 550 633 45,000  Level Denver Center
04:57PM 40.7947 -99.0933 81° East 548 631 45,000  Level Denver Center
04:58PM 40.8172 -98.9039 81° East 547 629 45,000  Level Denver Center
04:59PM 40.8386 -98.7150 81° East 549 632 45,000  Level Denver Center
05:00PM 40.8658 -98.4789 81° East 549 632 45,000  Level Denver Center
05:01PM 40.8875 -98.2803 82° East 551 634 45,000  Level Minneapolis Center
05:02PM 40.9092 -98.0814 82° East 551 634 45,000  Level Minneapolis Center
05:03PM 40.9350 -97.8419 82° East 550 633 45,000  Level Minneapolis Center
05:04PM 40.9553 -97.6408 82° East 552 635 45,000  Level Minneapolis Center
05:05PM 40.9761 -97.4389 82° East 553 636 45,000  Level Minneapolis Center
05:06PM 40.9981 -97.2228 82° East 553 636 45,000  Level Minneapolis Center
05:07PM 41.0186 -97.0208 82° East 554 638 45,000  Level Minneapolis Center
05:08PM 41.0383 -96.8197 83° East 554 638 45,000  Level Minneapolis Center
05:09PM 41.0578 -96.6175 83° East 554 638 45,000  Level Minneapolis Center
05:11PM 41.0781 -96.4158 82° East 556 640 45,000  Level Minneapolis Center
05:12PM 41.0967 -96.2147 83° East 556 640 45,000  Level Minneapolis Center
05:13PM 41.1136 -96.0133 84° East 559 643 45,000  Level Minneapolis Center
05:14PM 41.1353 -95.7697 83° East 566 651 45,000  Level Minneapolis Center
05:15PM 41.1531 -95.5658 83° East 562 647 45,000  Level Minneapolis Center
05:16PM 41.1692 -95.3611 84° East 561 646 45,000  Level Minneapolis Center
05:17PM 41.1872 -95.1572 83° East 559 643 45,000  Level Minneapolis Center
05:18PM 41.2044 -94.9514 84° East 561 646 45,000  Level Minneapolis Center
05:19PM 41.2203 -94.7464 84° East 561 646 45,000  Level Minneapolis Center
05:20PM 41.2361 -94.5403 84° East 562 647 45,000  Level Minneapolis Center
05:21PM 41.2542 -94.2925 84° East 562 647 45,000  Level Minneapolis Center
05:22PM 41.2681 -94.1072 84° East 562 647 45,000  Level Minneapolis Center
05:23PM 41.2836 -93.9019 84° East 561 646 45,000  Level Minneapolis Center
05:24PM 41.2972 -93.6967 85° East 561 646 45,000  Level Minneapolis Center
05:25PM 41.3122 -93.4875 84° East 565 650 45,000  Level Minneapolis Center
05:26PM 41.3303 -93.2342 84° East 571 657 45,000  Level Minneapolis Center
05:27PM 41.3431 -93.0281 85° East 568 654 45,000  Level Minneapolis Center
05:28PM 41.3567 -92.8194 85° East 567 652 45,000  Level Minneapolis Center
05:29PM 41.3694 -92.6139 85° East 564 649 45,000  Level Minneapolis Center
05:30PM 41.3814 -92.4072 86° East 562 647 45,000  Level Minneapolis Center
05:31PM 41.3936 -92.2022 85° East 559 643 45,000  Level Minneapolis Center
05:32PM 41.4067 -91.9578 86° East 562 647 45,000  Level Chicago Center
05:33PM 41.4175 -91.7522 86° East 562 647 45,000  Level Chicago Center
05:34PM 41.4286 -91.5458 86° East 563 648 45,000  Level Chicago Center
05:35PM 41.4392 -91.3422 86° East 560 644 45,000  Level Chicago Center
05:36PM 41.4492 -91.1256 86° East 561 646 45,000  Level Chicago Center
05:37PM 41.4586 -90.9186 86° East 559 643 45,000  Level Chicago Center
05:38PM 41.4681 -90.7094 86° East 562 647 45,000  Level Chicago Center
05:39PM 41.4781 -90.4622 87° East 558 642 45,000  Level Chicago Center
05:40PM 41.4858 -90.2544 87° East 558 642 45,000  Level Chicago Center
05:41PM 41.4931 -90.0461 87° East 560 644 45,000  Level Chicago Center
05:42PM 41.5028 -89.8361 86° East 562 647 45,000  Level Chicago Center
05:43PM 41.5100 -89.6269 87° East 561 646 45,000  Level Chicago Center
05:44PM 41.5172 -89.4181 87° East 561 646 45,000  Level Chicago Center
05:45PM 41.5244 -89.2089 82° East 561 646 45,000  Level Chicago Center
05:46PM 41.5303 -88.9719 82° East 557 641 45,000  Level Chicago Center
05:48PM 41.5361 -88.7661 83° East 557 641 45,000  Level Chicago Center
05:49PM 41.5580 -88.4840 87° East 45,000  Level FlightAware
05:50PM 41.5820 -88.2550 82° East 45,000  Level FlightAware
05:51PM 41.6030 -88.0530 82° East 45,000  Level FlightAware
05:52PM 41.6200 -87.8900 82° East 45,000  Level FlightAware
05:52PM 41.6330 -87.7540 83° East 45,000  Level FlightAware
05:53PM 41.6470 -87.6140 82° East 45,000  Level FlightAware
05:54PM 41.6610 -87.4680 83° East 45,000  Level FlightAware
05:55PM 41.6790 -87.2800 83° East 45,000  Level FlightAware
05:56PM 41.6960 -87.0970 83° East 45,000  Level FlightAware
05:57PM 44.2500 -85.7140 21° North 30,400  Descending FlightAware
06:00PM 43.8750 -83.7210 104° East 30,400 3,660 Level FlightAware
06:01PM 41.8042 -86.0331 85° East 552 635 45,000 300 Climbing Chicago Center
06:03PM 44.2500 -85.7140 285° West 30,500 -120 Descending FlightAware
06:05PM 41.8570 -85.1950 171° South 45,000 300 Climbing FlightAware
06:06PM 41.8670 -85.0520 85° East 45,000 -120 Level FlightAware
06:06PM 41.8790 -84.8990 84° East 45,000 -120 Level FlightAware
06:07PM 41.8910 -84.7280 85° East 45,000 -120 Level FlightAware
06:08PM 41.9030 -84.5600 84° East 45,000 -120 Level FlightAware
06:09PM 41.9150 -84.4000 84° East 45,000 -120 Level FlightAware
06:09PM 41.9240 -84.2680 85° East 45,000 -120 Level FlightAware
06:11PM 41.9410 -84.0130 85° East 45,000 -120 Level FlightAware
06:11PM 41.9510 -83.8610 85° East 45,000 -120 Level FlightAware
06:12PM 41.9610 -83.7100 85° East 45,000 -120 Level FlightAware
06:13PM 41.9740 -83.5020 85° East 45,000 -120 Level FlightAware
06:14PM 41.9820 -83.3680 85° East 45,000 -120 Level FlightAware
06:15PM 41.9910 -83.2300 85° East 45,000 -180 Level FlightAware
06:15PM 41.9980 -83.1100 85° East 45,000 -180 Level FlightAware
06:16PM 42.0070 -82.9630 85° East 45,000 -180 Level FlightAware
06:17PM 42.0160 -82.8110 85° East 45,000 -180 Level FlightAware
06:18PM 42.0250 -82.6480 86° East 45,000 -180 Level FlightAware
06:18PM 42.0320 -82.5200 86° East 45,000 -180 Level FlightAware
06:19PM 42.0420 -82.3340 86° East 45,000 -180 Level FlightAware
06:20PM 42.0470 -82.2400 86° East 45,000 -180 Level FlightAware
06:20PM 42.0560 -82.0630 86° East 45,000 -180 Level FlightAware
06:21PM 42.0630 -81.9250 86° East 45,000 -180 Level FlightAware
06:22PM 42.0690 -81.8050 86° East 45,000 -180 Level FlightAware
06:23PM 42.0770 -81.6510 86° East 45,000 -240 Level FlightAware
06:23PM 42.0840 -81.5150 86° East 45,000 -240 Level FlightAware
06:24PM 42.0910 -81.3570 87° East 45,000 -240 Level FlightAware
06:25PM 42.0980 -81.2100 86° East 45,000 -240 Level FlightAware
06:25PM 42.1020 -81.1060 87° East 45,000 -240 Level FlightAware
06:26PM 42.1090 -80.9470 87° East 45,000 -240 Level FlightAware
06:27PM 42.1160 -80.7950 86° East 45,000 -300 Level FlightAware
06:27PM 42.1210 -80.6640 87° East 45,000 -300 Level FlightAware
06:28PM 42.1270 -80.5120 87° East 45,000 -300 Level FlightAware
06:29PM 42.1330 -80.3690 87° East 45,000 -300 Level FlightAware
06:29PM 42.1370 -80.2560 87° East 45,000 -360 Level FlightAware
06:30PM 42.1440 -80.0740 87° East 45,000 -360 Level FlightAware
06:31PM 42.1490 -79.9370 87° East 45,000 -420 Level FlightAware
06:32PM 42.1540 -79.7790 88° East 45,000 -480 Level FlightAware
06:32PM 42.1570 -79.6900 87° East 45,000 -480 Level FlightAware
06:33PM 42.1620 -79.5310 88° East 45,000 -540 Level FlightAware
06:34PM 42.1660 -79.4130 87° East 45,000 -600 Level FlightAware
06:34PM 42.1720 -79.2230 87° East 45,000 -720 Level FlightAware
06:35PM 42.1670 -79.1160 94° East 45,000 -900 Level FlightAware
06:36PM 42.1390 -78.9820 106° East 45,000 -1,080 Level FlightAware
06:36PM 42.1060 -78.8500 109° East 44,600 -1,440 Descending FlightAware
06:37PM 42.0700 -78.7060 109° East 43,500 -1,800 Descending FlightAware
06:38PM 42.0397 -78.5311 109° East 545 627 42,100 -1,800 Descending Cleveland Center
06:39PM 41.9903 -78.3397 109° East 550 633 40,500 -1,500 Descending Cleveland Center
06:40PM 41.9492 -78.1708 108° East 543 625 39,100 -1,680 Descending Cleveland Center
06:42PM 41.8475 -77.7878 109° East 565 650 35,800 -1,380 Descending New York Center
06:43PM 41.7964 -77.5903 109° East 565 650 35,200 -420 Descending New York Center
06:44PM 41.7431 -77.3931 110° East 565 650 35,000 -120 Descending New York Center
06:45PM 41.6892 -77.1958 110° East 565 650 35,000  Level New York Center
06:46PM 41.6353 -76.9964 110° East 565 650 35,000 -840 Level New York Center
06:47PM 41.5808 -76.8000 110° East 565 650 33,400 -1,980 Descending New York Center
06:48PM 41.5336 -76.6211 111° Southeast 565 650 31,000 -2,640 Descending New York Center
06:49PM 41.4783 -76.4281 112° Southeast 565 650 28,300 -2,700 Descending New York Center
06:50PM 41.4267 -76.2436 114° Southeast 552 635 25,700 -2,580 Descending New York Center
06:51PM 41.3747 -76.0517 114° Southeast 526 605 23,200 -2,280 Descending New York Center
06:52PM 41.3260 -75.8910 110° East 20,700 -2,220 Descending FlightAware
06:53PM 41.2910 -75.7680 111° Southeast 18,900 -2,220 Descending FlightAware
06:53PM 41.2640 -75.6790 112° Southeast 17,500 -2,160 Descending FlightAware
06:54PM 41.2380 -75.5970 113° Southeast 16,300 -2,040 Descending FlightAware
06:55PM 41.1990 -75.4810 114° Southeast 14,200 -2,160 Descending FlightAware
06:56PM 41.1583 -75.3483 114° Southeast 387 445 12,300 -2,040 Descending New York Center
06:57PM 41.1172 -75.2217 113° Southeast 350 403 10,000 -2,100 Descending New York Center
06:58PM 41.0817 -75.1147 114° Southeast 328 377 8,200 -1,800 Descending New York Center
06:59PM 41.0478 -75.0161 114° Southeast 319 367 6,400 -1,140 Descending New York Center
07:00PM 41.0117 -74.9150 115° Southeast 313 360 6,000 -600 Descending New York Center
07:01PM 40.9719 -74.8000 115° Southeast 304 350 5,300 -720 Descending New York Center
07:02PM 40.9436 -74.7131 115° Southeast 294 338 4,600 -840 Descending New York Center
07:03PM 40.9078 -74.6067 115° Southeast 289 333 3,700 -840 Descending New York Center
07:04PM 40.8706 -74.5278 115° Southeast 283 326 3,000 -600 Descending New York Center
07:04PM 40.8500 -74.5000 115° Southeast 276 318 3,000 -360 Level New York TRACON
07:06PM 40.7590 -74.3570 115° Southeast 2,300 -360 Descending FlightAware
07:07PM 40.7361 -74.2986 115° Southeast 252 290 2,000 -300 Descending New York Center
07:07PM 40.7333 -74.2667 97° East 217 250 2,000 -180 Level New York TRACON
07:08PM 40.7500 -74.2000 72° East 180 207 1,800 -300 Descending New York TRACON
07:09PM 40.7833 -74.1500 49° Northeast 164 189 1,500 -360 Descending New York TRACON
07:10PM 40.8167 -74.1000 49° Northeast 173 199 1,200 -360 Descending New York TRACON
07:11PM 40.8167 -74.0667 90° East 155 178 800 -420 Descending New York TRACON
07:14PM 40.8500 -74.0500 62° Northeast  Level FlightAware Approximate
07:21PM 40.8501 -74.0608 62° Northeast  Level Estimated